Terminal Aerodrome Forecast
Issued by NWS

Home | Current Version | Previous Version | Text Only | Print | Product List | Glossary On
Versions: 1 2 3 4 5 6 7 8 9 10 11 12 13 14
786
FTUS44 KLIX 261139
TAFMSY
TAF
KMSY 261139Z 2612/2712 31005KT P6SM FEW020 SCT250
     FM261500 35005KT P6SM BKN200
     FM262200 26005KT P6SM VCSH SCT050
     FM270300 35005KT P6SM BKN100=

USA.gov is the U.S. government's official web portal to all federal, state and local government web resources and services.